Time;durP1;ratioP1;P1;durP2;ratioP2;P2;SDS_P1;SDS_P2;PMS_P1;PMS_P2;Temp;Humidity;BMP_temperature;BMP_pressure;BME280_temperature;BME280_humidity;BME280_pressure;Samples;Min_cycle;Max_cycle;Signal;HPM_P1;HPM_P2
2023/08/27 00:02:11;;;;;;;6.82;5.68;;;;;;;;;;5072821;28;20052;-62
2023/08/27 00:04:37;;;;;;;6.30;5.68;;;;;;;;;;5073362;28;20048;-62
2023/08/27 00:07:03;;;;;;;6.43;5.82;;;;;;;;;;5073437;28;20218;-62
2023/08/27 00:09:29;;;;;;;6.07;5.47;;;;;;;;;;5073290;28;20378;-62
2023/08/27 00:11:55;;;;;;;6.85;6.25;;;;;;;;;;5072908;28;20090;-62
2023/08/27 00:14:21;;;;;;;7.40;5.75;;;;;;;;;;5073155;28;20036;-63
2023/08/27 00:16:47;;;;;;;6.40;5.60;;;;;;;;;;5072817;28;20535;-62
2023/08/27 00:19:14;;;;;;;6.50;5.90;;;;;;;;;;5073307;28;20036;-62
2023/08/27 00:21:40;;;;;;;5.97;5.38;;;;;;;;;;5073157;28;20048;-62
2023/08/27 00:24:06;;;;;;;6.20;5.60;;;;;;;;;;5073074;28;20094;-62
2023/08/27 00:26:32;;;;;;;7.43;6.10;;;;;;;;;;5087088;28;20051;-62
2023/08/27 00:28:59;;;;;;;6.72;5.30;;;;;;;;;;5093043;28;20056;-62
2023/08/27 00:31:25;;;;;;;6.35;5.75;;;;;;;;;;5092797;28;20064;-62
2023/08/27 00:33:50;;;;;;;7.45;6.07;;;;;;;;;;5092836;28;20478;-62
2023/08/27 00:36:17;;;;;;;6.43;5.78;;;;;;;;;;5093141;28;20123;-62
2023/08/27 00:38:43;;;;;;;6.75;6.15;;;;;;;;;;5092484;28;20123;-62
2023/08/27 00:41:09;;;;;;;7.05;6.30;;;;;;;;;;5093068;28;20714;-62
2023/08/27 00:43:35;;;;;;;6.80;5.78;;;;;;;;;;5093142;28;20036;-62
2023/08/27 00:46:02;;;;;;;5.93;5.30;;;;;;;;;;5092591;28;20531;-62
2023/08/27 00:48:28;;;;;;;7.57;5.85;;;;;;;;;;5092895;28;20047;-62
2023/08/27 00:50:55;;;;;;;8.85;5.63;;;;;;;;;;5071599;28;20057;-62
2023/08/27 00:53:21;;;;;;;5.53;5.00;;;;;;;;;;5072151;28;20128;-62
2023/08/27 00:55:47;;;;;;;5.60;5.10;;;;;;;;;;5071101;28;20040;-62
2023/08/27 00:58:13;;;;;;;5.57;5.03;;;;;;;;;;5072676;28;20041;-62
2023/08/27 01:00:40;;;;;;;6.40;5.55;;;;;;;;;;5070730;28;20503;-62
2023/08/27 01:03:06;;;;;;;5.82;5.32;;;;;;;;;;5072639;28;20094;-62
2023/08/27 01:05:32;;;;;;;5.78;5.28;;;;;;;;;;5072162;28;20048;-62
2023/08/27 01:08:06;;;;;;;6.10;5.53;;;;;;;;;;5071924;28;20053;-62
2023/08/27 01:10:48;;;;;;;6.18;5.53;;;;;;;;;;5072242;28;20475;-62
2023/08/27 01:13:17;;;;;;;6.20;5.60;;;;;;;;;;5072129;28;20403;-62
2023/08/27 01:15:44;;;;;;;6.43;5.82;;;;;;;;;;5071857;28;20124;-62
2023/08/27 01:18:10;;;;;;;5.78;5.28;;;;;;;;;;5072154;28;20044;-62
2023/08/27 01:20:36;;;;;;;5.72;5.22;;;;;;;;;;5071686;28;20040;-62
2023/08/27 01:23:02;;;;;;;6.10;5.47;;;;;;;;;;5071617;28;20083;-62
2023/08/27 01:25:33;;;;;;;6.05;5.53;;;;;;;;;;5077017;28;20039;-62
2023/08/27 01:28:11;;;;;;;6.18;5.57;;;;;;;;;;5091862;28;20127;-62
2023/08/27 01:30:44;;;;;;;6.35;5.75;;;;;;;;;;5091729;28;20102;-62
2023/08/27 01:33:15;;;;;;;7.30;5.88;;;;;;;;;;5091687;28;20040;-62
2023/08/27 01:35:41;;;;;;;6.80;6.20;;;;;;;;;;5091696;28;20059;-62
2023/08/27 01:38:07;;;;;;;6.80;6.18;;;;;;;;;;5091679;28;20040;-62
2023/08/27 01:40:33;;;;;;;6.53;5.93;;;;;;;;;;5091570;28;20075;-62
2023/08/27 01:42:59;;;;;;;6.13;5.53;;;;;;;;;;5091808;28;20097;-62
2023/08/27 01:45:25;;;;;;;7.32;6.18;;;;;;;;;;5091124;28;20040;-62
2023/08/27 01:47:51;;;;;;;6.75;6.15;;;;;;;;;;5091654;28;20445;-62
2023/08/27 01:50:17;;;;;;;8.77;6.40;;;;;;;;;;5076965;28;20037;-62
2023/08/27 01:52:43;;;;;;;7.97;6.13;;;;;;;;;;5069840;28;20047;-62
2023/08/27 01:55:09;;;;;;;9.02;7.07;;;;;;;;;;5071431;28;20040;-62
2023/08/27 01:57:35;;;;;;;7.25;6.50;;;;;;;;;;5071390;28;20162;-62
2023/08/27 02:00:01;;;;;;;7.30;6.70;;;;;;;;;;5070520;28;20062;-62
2023/08/27 02:02:27;;;;;;;7.97;7.13;;;;;;;;;;5070933;28;20056;-62
2023/08/27 02:04:53;;;;;;;7.43;6.60;;;;;;;;;;5071247;28;20124;-62
2023/08/27 02:07:20;;;;;;;7.68;6.88;;;;;;;;;;5070275;28;20598;-62
2023/08/27 02:09:46;;;;;;;9.63;7.38;;;;;;;;;;5071131;28;20124;-62
2023/08/27 02:12:12;;;;;;;7.43;6.72;;;;;;;;;;5070661;28;20112;-62
2023/08/27 02:14:38;;;;;;;13.13;7.18;;;;;;;;;;5070694;28;20051;-62
2023/08/27 02:17:04;;;;;;;8.50;7.13;;;;;;;;;;5071001;28;20093;-62
2023/08/27 02:19:30;;;;;;;7.85;7.07;;;;;;;;;;5070623;28;20047;-62
2023/08/27 02:21:56;;;;;;;8.02;7.07;;;;;;;;;;5070396;28;20044;-62
2023/08/27 02:24:22;;;;;;;7.90;7.13;;;;;;;;;;5070954;28;20075;-62
2023/08/27 02:26:48;;;;;;;8.10;7.40;;;;;;;;;;5087252;28;20040;-62
2023/08/27 02:29:14;;;;;;;8.18;7.38;;;;;;;;;;5090476;28;20062;-62
2023/08/27 02:31:40;;;;;;;8.07;7.38;;;;;;;;;;5091041;28;20036;-62
2023/08/27 02:34:06;;;;;;;8.57;7.78;;;;;;;;;;5090930;28;20036;-62
2023/08/27 02:36:32;;;;;;;9.00;7.20;;;;;;;;;;5090429;28;20115;-62
2023/08/27 02:38:58;;;;;;;8.32;7.53;;;;;;;;;;5090953;28;20207;-62
2023/08/27 02:41:24;;;;;;;8.88;8.07;;;;;;;;;;5090520;28;20036;-62
2023/08/27 02:43:50;;;;;;;8.73;7.28;;;;;;;;;;5090535;28;20046;-62
2023/08/27 02:46:16;;;;;;;10.05;6.95;;;;;;;;;;5090874;28;20035;-62
2023/08/27 02:48:42;;;;;;;8.57;7.60;;;;;;;;;;5089059;28;20044;-62
2023/08/27 02:51:08;;;;;;;8.45;7.50;;;;;;;;;;5070061;28;20426;-62
2023/08/27 02:53:34;;;;;;;8.70;7.72;;;;;;;;;;5068045;28;20052;-62
2023/08/27 02:56:00;;;;;;;10.07;8.23;;;;;;;;;;5070285;28;20090;-62
2023/08/27 02:58:26;;;;;;;8.18;7.45;;;;;;;;;;5070748;28;20040;-62
2023/08/27 03:00:53;;;;;;;10.75;8.57;;;;;;;;;;5069710;28;20165;-62
2023/08/27 03:03:19;;;;;;;9.95;8.20;;;;;;;;;;5068981;28;20040;-62
2023/08/27 03:05:45;;;;;;;9.23;8.32;;;;;;;;;;5070383;28;20040;-62
2023/08/27 03:08:11;;;;;;;9.45;8.40;;;;;;;;;;5070121;28;20549;-62
2023/08/27 03:10:37;;;;;;;9.50;8.35;;;;;;;;;;5070242;28;20115;-62
2023/08/27 03:13:03;;;;;;;11.18;8.85;;;;;;;;;;5070244;28;20150;-62
2023/08/27 03:15:29;;;;;;;10.05;8.30;;;;;;;;;;5069928;28;20123;-62
2023/08/27 03:17:55;;;;;;;11.18;9.55;;;;;;;;;;5070449;28;20590;-62
2023/08/27 03:20:21;;;;;;;10.07;8.93;;;;;;;;;;5074573;28;20413;-62
2023/08/27 03:22:47;;;;;;;10.27;9.18;;;;;;;;;;5073958;28;20119;-62
2023/08/27 03:25:13;;;;;;;10.32;8.55;;;;;;;;;;5076829;28;20086;-62
2023/08/27 03:27:39;;;;;;;9.43;8.13;;;;;;;;;;5094517;28;20542;-62
2023/08/27 03:30:05;;;;;;;12.45;8.82;;;;;;;;;;5093967;28;20093;-62
2023/08/27 03:32:31;;;;;;;10.70;8.80;;;;;;;;;;5094408;28;20094;-62
2023/08/27 03:34:57;;;;;;;10.30;9.10;;;;;;;;;;5094766;28;20467;-62
2023/08/27 03:37:23;;;;;;;11.23;8.70;;;;;;;;;;5094045;28;20051;-62
2023/08/27 03:39:49;;;;;;;9.13;8.20;;;;;;;;;;5094414;28;20485;-62
2023/08/27 03:42:15;;;;;;;10.30;9.07;;;;;;;;;;5094269;28;20402;-62
2023/08/27 03:44:41;;;;;;;10.75;8.65;;;;;;;;;;5093860;28;20062;-62
2023/08/27 03:47:07;;;;;;;10.30;9.30;;;;;;;;;;5093759;28;20040;-62
2023/08/27 03:49:33;;;;;;;10.80;9.07;;;;;;;;;;5085583;28;20430;-62
2023/08/27 03:51:59;;;;;;;9.30;8.40;;;;;;;;;;5073630;28;20037;-62
2023/08/27 03:54:27;;;;;;;9.02;8.13;;;;;;;;;;5074079;28;20044;-62
2023/08/27 03:56:53;;;;;;;10.32;7.82;;;;;;;;;;5072546;28;20045;-62
2023/08/27 03:59:19;;;;;;;8.75;7.60;;;;;;;;;;5073009;28;20043;-62
2023/08/27 04:01:45;;;;;;;8.77;7.85;;;;;;;;;;5073548;28;20113;-62
2023/08/27 04:04:11;;;;;;;8.40;7.47;;;;;;;;;;5073649;28;20048;-62
2023/08/27 04:06:37;;;;;;;9.95;8.10;;;;;;;;;;5072812;28;20044;-62
2023/08/27 04:09:04;;;;;;;8.52;7.28;;;;;;;;;;5073560;28;20037;-62
2023/08/27 04:11:30;;;;;;;12.18;7.55;;;;;;;;;;5073390;28;20048;-62
2023/08/27 04:13:56;;;;;;;9.10;7.78;;;;;;;;;;5072963;28;20037;-62
2023/08/27 04:16:22;;;;;;;8.60;6.82;;;;;;;;;;5073214;28;20129;-62
2023/08/27 04:18:48;;;;;;;7.82;6.80;;;;;;;;;;5072997;28;20133;-62
2023/08/27 04:21:14;;;;;;;9.40;6.38;;;;;;;;;;5072900;28;20040;-62
2023/08/27 04:23:40;;;;;;;8.13;7.03;;;;;;;;;;5073250;28;20444;-62
2023/08/27 04:26:06;;;;;;;11.77;7.18;;;;;;;;;;5081895;28;20044;-62
2023/08/27 04:28:32;;;;;;;8.98;7.70;;;;;;;;;;5092675;28;20126;-62
2023/08/27 04:30:58;;;;;;;7.35;6.65;;;;;;;;;;5092898;28;20130;-62
2023/08/27 04:33:24;;;;;;;7.32;6.63;;;;;;;;;;5093592;28;20101;-62
2023/08/27 04:35:52;;;;;;;8.82;7.18;;;;;;;;;;5092818;28;20538;-62
2023/08/27 04:38:19;;;;;;;7.63;6.93;;;;;;;;;;5092871;28;20056;-62
2023/08/27 04:40:49;;;;;;;7.90;6.75;;;;;;;;;;5093075;28;20052;-62
2023/08/27 04:43:15;;;;;;;7.78;6.22;;;;;;;;;;5092436;28;20075;-62
2023/08/27 04:45:41;;;;;;;8.77;7.25;;;;;;;;;;5092694;28;20071;-62
2023/08/27 04:48:08;;;;;;;8.15;7.05;;;;;;;;;;5092671;28;20047;-62
2023/08/27 04:50:34;;;;;;;10.23;7.20;;;;;;;;;;5075420;28;20041;-62
2023/08/27 04:53:00;;;;;;;10.07;7.22;;;;;;;;;;5072679;28;20424;-62
2023/08/27 04:55:26;;;;;;;10.98;7.90;;;;;;;;;;5072611;28;20032;-62
2023/08/27 04:57:52;;;;;;;8.48;7.05;;;;;;;;;;5071914;28;20044;-62
2023/08/27 05:00:21;;;;;;;9.02;6.57;;;;;;;;;;5070949;28;20290;-62
2023/08/27 05:02:48;;;;;;;8.27;7.13;;;;;;;;;;5072690;28;20471;-62
2023/08/27 05:05:14;;;;;;;8.75;7.47;;;;;;;;;;5071990;28;20128;-62
2023/08/27 05:07:40;;;;;;;7.95;6.95;;;;;;;;;;5072499;28;20119;-62
2023/08/27 05:10:06;;;;;;;7.88;7.13;;;;;;;;;;5072267;28;20032;-62
2023/08/27 05:12:32;;;;;;;8.48;7.57;;;;;;;;;;5071734;28;20090;-62
2023/08/27 05:14:58;;;;;;;9.70;8.43;;;;;;;;;;5072613;28;20510;-62
2023/08/27 05:17:24;;;;;;;8.68;7.78;;;;;;;;;;5072272;28;20466;-62
2023/08/27 05:19:50;;;;;;;8.88;7.75;;;;;;;;;;5071467;28;20106;-62
2023/08/27 05:22:16;;;;;;;12.23;8.10;;;;;;;;;;5071954;28;20051;-62
2023/08/27 05:24:42;;;;;;;7.72;6.97;;;;;;;;;;5071737;28;20565;-62
2023/08/27 05:27:08;;;;;;;9.35;7.15;;;;;;;;;;5090244;28;20097;-62
2023/08/27 05:29:34;;;;;;;9.82;7.20;;;;;;;;;;5091857;28;20383;-62
2023/08/27 05:32:00;;;;;;;7.70;6.90;;;;;;;;;;5092027;28;20047;-62
2023/08/27 05:34:26;;;;;;;9.35;8.05;;;;;;;;;;5091515;28;20036;-62
2023/08/27 05:36:52;;;;;;;8.65;6.70;;;;;;;;;;5091975;28;20129;-62
2023/08/27 05:39:19;;;;;;;9.18;7.30;;;;;;;;;;5092009;28;20107;-63
2023/08/27 05:41:45;;;;;;;8.80;6.75;;;;;;;;;;5090742;28;20039;-62
2023/08/27 05:44:11;;;;;;;7.57;6.43;;;;;;;;;;5091957;28;20040;-62
2023/08/27 05:46:37;;;;;;;8.27;6.75;;;;;;;;;;5091582;28;20040;-62
2023/08/27 05:49:03;;;;;;;8.93;6.45;;;;;;;;;;5087429;28;20120;-62
2023/08/27 05:51:29;;;;;;;7.45;6.65;;;;;;;;;;5071554;28;20379;-62
2023/08/27 05:53:56;;;;;;;7.60;6.78;;;;;;;;;;5071418;28;20043;-62
2023/08/27 05:56:22;;;;;;;7.90;7.10;;;;;;;;;;5070684;28;20109;-62
2023/08/27 05:58:48;;;;;;;9.00;7.50;;;;;;;;;;5071038;28;20049;-63
2023/08/27 06:01:15;;;;;;;10.10;7.40;;;;;;;;;;5071300;28;20046;-62
2023/08/27 06:03:41;;;;;;;8.73;6.72;;;;;;;;;;5070650;28;20055;-62
2023/08/27 06:06:07;;;;;;;10.50;7.20;;;;;;;;;;5071228;28;20040;-62
2023/08/27 06:08:33;;;;;;;8.77;7.13;;;;;;;;;;5071194;28;20044;-62
2023/08/27 06:10:59;;;;;;;8.70;6.90;;;;;;;;;;5070530;28;20062;-62
2023/08/27 06:13:25;;;;;;;9.50;6.93;;;;;;;;;;5070931;28;20067;-62
2023/08/27 06:15:51;;;;;;;9.93;7.47;;;;;;;;;;5071039;28;20486;-62
2023/08/27 06:18:17;;;;;;;10.48;7.85;;;;;;;;;;5070941;28;20431;-62
2023/08/27 06:20:43;;;;;;;11.23;7.25;;;;;;;;;;5070605;28;20040;-62
2023/08/27 06:23:09;;;;;;;11.90;7.50;;;;;;;;;;5070798;28;20391;-62
2023/08/27 06:25:35;;;;;;;9.07;7.10;;;;;;;;;;5076721;28;20044;-62
2023/08/27 06:28:04;;;;;;;10.45;7.20;;;;;;;;;;5090373;28;20601;-62
2023/08/27 06:30:30;;;;;;;14.88;7.70;;;;;;;;;;5090928;28;20048;-62
2023/08/27 06:32:56;;;;;;;11.50;7.32;;;;;;;;;;5090864;28;20371;-62
2023/08/27 06:35:23;;;;;;;8.07;6.50;;;;;;;;;;5090410;28;20032;-62
2023/08/27 06:37:48;;;;;;;11.18;6.95;;;;;;;;;;5090827;28;20442;-62
2023/08/27 06:40:15;;;;;;;9.85;6.35;;;;;;;;;;5090838;28;20040;-62
2023/08/27 06:42:41;;;;;;;9.27;6.25;;;;;;;;;;5090123;28;20040;-62
2023/08/27 06:45:07;;;;;;;8.52;7.15;;;;;;;;;;5090760;28;20402;-62
2023/08/27 06:47:33;;;;;;;10.63;6.45;;;;;;;;;;5090578;28;20471;-62
2023/08/27 06:49:59;;;;;;;9.23;6.88;;;;;;;;;;5078023;28;20123;-62
2023/08/27 06:52:26;;;;;;;9.02;6.47;;;;;;;;;;5070431;28;20047;-62
2023/08/27 06:54:52;;;;;;;10.23;7.10;;;;;;;;;;5070411;28;20506;-62
2023/08/27 06:57:18;;;;;;;8.52;7.05;;;;;;;;;;5070056;28;20067;-62
2023/08/27 06:59:44;;;;;;;7.20;6.25;;;;;;;;;;5070443;28;20478;-62
2023/08/27 07:02:10;;;;;;;9.00;6.35;;;;;;;;;;5070293;28;20040;-62
2023/08/27 07:04:36;;;;;;;9.63;6.18;;;;;;;;;;5069968;28;20090;-62
2023/08/27 07:07:02;;;;;;;7.65;5.45;;;;;;;;;;5070212;28;20037;-62
2023/08/27 07:09:27;;;;;;;6.57;5.65;;;;;;;;;;5070365;28;20040;-62
2023/08/27 07:11:54;;;;;;;8.40;5.40;;;;;;;;;;5069738;28;20495;-62
2023/08/27 07:14:19;;;;;;;6.90;5.00;;;;;;;;;;5068870;28;20045;-62
2023/08/27 07:16:45;;;;;;;7.43;4.65;;;;;;;;;;5070405;28;20063;-62
2023/08/27 07:19:11;;;;;;;6.05;4.95;;;;;;;;;;5069836;28;20047;-62
2023/08/27 07:21:38;;;;;;;8.80;6.05;;;;;;;;;;5070268;28;20041;-62
2023/08/27 07:24:04;;;;;;;7.88;5.60;;;;;;;;;;5070073;28;20139;-62
2023/08/27 07:26:30;;;;;;;7.55;6.18;;;;;;;;;;5083277;28;20115;-62
2023/08/27 07:28:59;;;;;;;8.15;6.72;;;;;;;;;;5090012;28;20075;-62
2023/08/27 07:31:25;;;;;;;11.07;6.50;;;;;;;;;;5089949;28;20043;-62
2023/08/27 07:33:51;;;;;;;7.40;6.53;;;;;;;;;;5089638;28;20043;-62
2023/08/27 07:36:17;;;;;;;10.15;6.35;;;;;;;;;;5090142;28;20040;-62
2023/08/27 07:38:43;;;;;;;6.40;5.13;;;;;;;;;;5090302;28;20481;-62
2023/08/27 07:41:09;;;;;;;9.57;5.85;;;;;;;;;;5089940;28;20044;-63
2023/08/27 07:43:35;;;;;;;9.82;5.82;;;;;;;;;;5090299;28;20067;-62
2023/08/27 07:46:01;;;;;;;6.50;5.82;;;;;;;;;;5088694;28;20043;-62
2023/08/27 07:48:28;;;;;;;9.15;5.78;;;;;;;;;;5089863;28;20127;-62
2023/08/27 07:50:54;;;;;;;8.43;5.93;;;;;;;;;;5070451;28;20063;-62
2023/08/27 07:53:20;;;;;;;6.35;5.00;;;;;;;;;;5069887;28;20492;-62
2023/08/27 07:55:46;;;;;;;5.35;4.68;;;;;;;;;;5069663;28;20390;-62
2023/08/27 07:58:13;;;;;;;7.00;5.15;;;;;;;;;;5070062;28;20483;-62
2023/08/27 08:00:39;;;;;;;5.78;4.80;;;;;;;;;;5069817;28;20419;-62
2023/08/27 08:03:05;;;;;;;7.30;4.80;;;;;;;;;;5068061;28;20045;-62
2023/08/27 08:05:31;;;;;;;7.28;4.90;;;;;;;;;;5070937;28;20190;-62
2023/08/27 08:07:57;;;;;;;8.52;5.13;;;;;;;;;;5073503;28;20489;-62
2023/08/27 08:10:23;;;;;;;5.60;4.25;;;;;;;;;;5073040;28;20086;-62
2023/08/27 08:12:50;;;;;;;5.47;4.45;;;;;;;;;;5072087;28;20467;-62
2023/08/27 08:15:16;;;;;;;9.93;4.88;;;;;;;;;;5073382;28;20036;-62
2023/08/27 08:17:43;;;;;;;7.72;4.93;;;;;;;;;;5072825;28;20044;-62
2023/08/27 08:20:09;;;;;;;6.78;4.68;;;;;;;;;;5073146;28;20128;-62
2023/08/27 08:22:35;;;;;;;5.53;3.80;;;;;;;;;;5073324;28;20131;-62
2023/08/27 08:25:01;;;;;;;6.20;3.97;;;;;;;;;;5073847;28;20456;-62
2023/08/27 08:27:27;;;;;;;6.28;4.10;;;;;;;;;;5093420;28;20533;-62
2023/08/27 08:29:54;;;;;;;5.97;3.70;;;;;;;;;;5092787;28;20055;-62
2023/08/27 08:32:20;;;;;;;6.57;3.58;;;;;;;;;;5093297;28;20036;-62
2023/08/27 08:34:46;;;;;;;6.05;3.90;;;;;;;;;;5093184;28;20044;-62
2023/08/27 08:37:12;;;;;;;7.30;4.10;;;;;;;;;;5093318;28;20065;-62
2023/08/27 08:39:38;;;;;;;5.57;4.20;;;;;;;;;;5092886;28;20038;-62
2023/08/27 08:42:15;;;;;;;6.75;4.35;;;;;;;;;;5092657;28;20039;-62
2023/08/27 08:44:53;;;;;;;4.60;3.65;;;;;;;;;;5093148;28;20051;-62
2023/08/27 08:47:20;;;;;;;5.25;3.40;;;;;;;;;;5092088;28;20562;-62
2023/08/27 08:49:47;;;;;;;4.43;3.10;;;;;;;;;;5083021;28;20032;-62
2023/08/27 08:52:18;;;;;;;4.72;3.25;;;;;;;;;;5072410;28;20131;-62
2023/08/27 08:54:45;;;;;;;4.85;3.28;;;;;;;;;;5072287;28;20115;-62
2023/08/27 08:57:12;;;;;;;5.10;3.67;;;;;;;;;;5072668;28;20078;-63
2023/08/27 08:59:38;;;;;;;4.85;3.10;;;;;;;;;;5072397;28;20080;-62
2023/08/27 09:02:04;;;;;;;6.05;3.55;;;;;;;;;;5072019;28;20044;-62
2023/08/27 09:04:31;;;;;;;6.75;4.10;;;;;;;;;;5072576;28;20438;-62
2023/08/27 09:06:57;;;;;;;5.50;3.75;;;;;;;;;;5070874;28;20119;-62
2023/08/27 09:09:23;;;;;;;6.53;3.90;;;;;;;;;;5072014;28;20036;-62
2023/08/27 09:11:50;;;;;;;5.95;3.40;;;;;;;;;;5071028;28;20132;-62
2023/08/27 09:14:16;;;;;;;5.13;3.47;;;;;;;;;;5072034;28;20036;-63
2023/08/27 09:16:42;;;;;;;5.45;3.38;;;;;;;;;;5070824;28;20040;-62
2023/08/27 09:19:08;;;;;;;5.22;3.20;;;;;;;;;;5072146;28;20136;-62
2023/08/27 09:21:35;;;;;;;5.32;2.97;;;;;;;;;;5072186;28;20422;-63
2023/08/27 09:24:01;;;;;;;7.50;4.00;;;;;;;;;;5071720;28;20386;-62
2023/08/27 09:26:27;;;;;;;6.50;3.63;;;;;;;;;;5084936;28;20035;-63
2023/08/27 09:28:54;;;;;;;7.32;3.70;;;;;;;;;;5091712;28;20100;-63
2023/08/27 09:31:37;;;;;;;4.88;4.15;;;;;;;;;;5091757;28;20047;-63
2023/08/27 09:34:03;;;;;;;6.75;3.78;;;;;;;;;;5092268;28;20527;-63
2023/08/27 09:36:32;;;;;;;7.18;3.60;;;;;;;;;;5091199;28;20036;-63
2023/08/27 09:38:58;;;;;;;4.18;3.58;;;;;;;;;;5090911;28;20048;-63
2023/08/27 09:41:24;;;;;;;4.43;3.80;;;;;;;;;;5091813;28;20047;-63
2023/08/27 09:43:54;;;;;;;4.95;3.38;;;;;;;;;;5091995;28;20048;-63
2023/08/27 09:46:21;;;;;;;4.75;3.05;;;;;;;;;;5091526;28;20063;-63
2023/08/27 09:49:17;;;;;;;6.05;3.28;;;;;;;;;;5089806;28;20036;-63
2023/08/27 09:51:43;;;;;;;4.63;3.45;;;;;;;;;;5061275;28;20500;-63
2023/08/27 09:54:22;;;;;;;6.60;3.13;;;;;;;;;;5070921;28;20040;-62
2023/08/27 09:56:49;;;;;;;3.58;2.88;;;;;;;;;;5071530;28;20041;-62
2023/08/27 09:59:19;;;;;;;4.18;3.25;;;;;;;;;;5071434;28;20434;-63
2023/08/27 10:01:51;;;;;;;5.00;3.50;;;;;;;;;;5070812;28;20048;-62
2023/08/27 10:04:18;;;;;;;7.20;3.83;;;;;;;;;;5071245;28;20043;-62
2023/08/27 10:06:44;;;;;;;5.60;3.10;;;;;;;;;;5071183;28;20391;-63
2023/08/27 10:09:10;;;;;;;5.30;3.22;;;;;;;;;;5070216;28;20036;-63
2023/08/27 10:11:36;;;;;;;5.03;3.17;;;;;;;;;;5070790;28;20123;-63
2023/08/27 10:14:05;;;;;;;5.30;3.25;;;;;;;;;;5070745;28;20049;-63
2023/08/27 10:16:34;;;;;;;4.38;3.33;;;;;;;;;;5070609;28;20434;-63
2023/08/27 10:19:01;;;;;;;4.13;3.15;;;;;;;;;;5070751;28;20091;-63
2023/08/27 10:21:27;;;;;;;3.65;3.28;;;;;;;;;;5070848;28;20322;-63
2023/08/27 10:23:53;;;;;;;5.57;3.50;;;;;;;;;;5070805;28;20398;-63
2023/08/27 10:26:20;;;;;;;5.63;3.78;;;;;;;;;;5082700;28;20044;-63
2023/08/27 10:28:47;;;;;;;6.90;3.90;;;;;;;;;;5090508;28;20079;-63
2023/08/27 10:31:13;;;;;;;6.13;3.47;;;;;;;;;;5090732;28;20040;-63
2023/08/27 10:33:39;;;;;;;6.53;4.38;;;;;;;;;;5090851;28;20048;-63
2023/08/27 10:36:07;;;;;;;4.22;3.83;;;;;;;;;;5090846;28;20081;-63
2023/08/27 10:38:34;;;;;;;5.05;3.28;;;;;;;;;;5090461;28;20048;-62
2023/08/27 10:41:02;;;;;;;4.45;3.17;;;;;;;;;;5090713;28;20040;-63
2023/08/27 10:43:32;;;;;;;5.88;4.47;;;;;;;;;;5090752;28;20043;-63
2023/08/27 10:46:09;;;;;;;7.50;4.65;;;;;;;;;;5090433;28;20039;-63
2023/08/27 10:48:37;;;;;;;6.75;5.82;;;;;;;;;;5090410;28;20470;-63
2023/08/27 10:51:10;;;;;;;7.35;6.07;;;;;;;;;;5070424;28;20395;-63
2023/08/27 10:53:40;;;;;;;13.43;7.57;;;;;;;;;;5070116;28;20033;-63
2023/08/27 10:56:26;;;;;;;7.57;5.68;;;;;;;;;;5070191;28;20036;-62
2023/08/27 10:58:52;;;;;;;8.90;6.28;;;;;;;;;;5069248;28;20044;-62
2023/08/27 11:01:20;;;;;;;11.50;7.00;;;;;;;;;;5069846;28;20094;-62
2023/08/27 11:04:01;;;;;;;8.35;5.32;;;;;;;;;;5070403;28;20127;-62
2023/08/27 11:06:33;;;;;;;6.00;5.40;;;;;;;;;;5070566;28;20053;-62
2023/08/27 11:08:59;;;;;;;9.38;6.05;;;;;;;;;;5069793;28;20048;-62
2023/08/27 11:11:26;;;;;;;8.05;6.20;;;;;;;;;;5070275;28;20063;-62
2023/08/27 11:14:02;;;;;;;10.02;6.32;;;;;;;;;;5070290;28;20044;-62
2023/08/27 11:16:29;;;;;;;9.50;7.63;;;;;;;;;;5068631;28;20442;-62
2023/08/27 11:18:56;;;;;;;10.18;7.85;;;;;;;;;;5070112;28;20044;-62
2023/08/27 11:21:25;;;;;;;10.52;7.78;;;;;;;;;;5070145;28;20063;-63
2023/08/27 11:24:09;;;;;;;9.50;7.45;;;;;;;;;;5069688;28;20453;-63
2023/08/27 11:26:35;;;;;;;11.73;8.77;;;;;;;;;;5084181;28;20390;-63
2023/08/27 11:29:03;;;;;;;9.55;7.40;;;;;;;;;;5089895;28;20349;-63
2023/08/27 11:31:30;;;;;;;11.27;8.43;;;;;;;;;;5090158;28;20043;-63
2023/08/27 11:33:56;;;;;;;10.50;8.68;;;;;;;;;;5089798;28;20044;-63
2023/08/27 11:36:22;;;;;;;10.85;8.50;;;;;;;;;;5090212;28;20044;-63
2023/08/27 11:38:48;;;;;;;12.30;9.32;;;;;;;;;;5089950;28;20439;-62
2023/08/27 11:41:14;;;;;;;10.38;8.00;;;;;;;;;;5093825;28;20128;-63
2023/08/27 11:43:40;;;;;;;15.80;9.23;;;;;;;;;;5094245;28;20097;-63
2023/08/27 11:46:20;;;;;;;11.25;7.85;;;;;;;;;;5093817;28;20040;-63
2023/08/27 11:48:48;;;;;;;10.32;7.40;;;;;;;;;;5092222;28;20403;-62
2023/08/27 11:51:14;;;;;;;12.48;8.90;;;;;;;;;;5073751;28;20049;-62
2023/08/27 11:53:41;;;;;;;13.20;8.57;;;;;;;;;;5073120;28;20475;-63
2023/08/27 11:56:07;;;;;;;23.17;9.55;;;;;;;;;;5073790;28;20044;-63
2023/08/27 11:58:33;;;;;;;17.95;9.75;;;;;;;;;;5073811;28;20083;-63
2023/08/27 12:00:59;;;;;;;13.93;8.32;;;;;;;;;;5073105;28;20080;-63
2023/08/27 12:03:26;;;;;;;11.70;7.07;;;;;;;;;;5073663;28;20509;-62
2023/08/27 12:05:52;;;;;;;8.82;6.20;;;;;;;;;;5073628;28;20048;-63
2023/08/27 12:08:18;;;;;;;10.05;5.70;;;;;;;;;;5073102;28;20452;-63
2023/08/27 12:10:44;;;;;;;11.60;5.97;;;;;;;;;;5073203;28;20044;-63
2023/08/27 12:13:10;;;;;;;22.30;6.75;;;;;;;;;;5073430;28;20041;-63
2023/08/27 12:15:36;;;;;;;10.32;6.40;;;;;;;;;;5073095;28;20440;-63
2023/08/27 12:18:11;;;;;;;8.82;7.70;;;;;;;;;;5073342;28;20127;-63
2023/08/27 12:20:37;;;;;;;11.60;8.48;;;;;;;;;;5073339;28;20393;-63
2023/08/27 12:23:10;;;;;;;13.70;8.95;;;;;;;;;;5072903;28;20032;-62
2023/08/27 12:25:50;;;;;;;13.23;9.32;;;;;;;;;;5079219;28;20044;-62
2023/08/27 12:28:19;;;;;;;8.57;7.20;;;;;;;;;;5092936;28;20048;-62
2023/08/27 12:30:54;;;;;;;8.48;6.03;;;;;;;;;;5092797;28;20040;-62
2023/08/27 12:33:20;;;;;;;5.32;4.82;;;;;;;;;;5093275;28;20147;-62
2023/08/27 12:35:47;;;;;;;5.13;3.17;;;;;;;;;;5092838;28;20044;-62
2023/08/27 12:38:13;;;;;;;2.60;2.40;;;;;;;;;;5091616;28;20070;-62
2023/08/27 12:40:39;;;;;;;1.77;1.38;;;;;;;;;;5091692;28;20494;-63
2023/08/27 12:43:05;;;;;;;3.58;1.60;;;;;;;;;;5093289;28;20036;-63
2023/08/27 12:45:31;;;;;;;1.40;1.30;;;;;;;;;;5092923;28;20071;-63
2023/08/27 12:48:02;;;;;;;1.38;0.93;;;;;;;;;;5093087;28;20479;-63
2023/08/27 12:50:28;;;;;;;1.10;0.90;;;;;;;;;;5076936;28;20047;-63
2023/08/27 12:52:54;;;;;;;1.00;1.00;;;;;;;;;;5072460;28;20445;-62
2023/08/27 12:55:20;;;;;;;2.75;1.60;;;;;;;;;;5072673;28;20390;-62
2023/08/27 12:57:46;;;;;;;2.60;1.20;;;;;;;;;;5072774;28;20033;-62
2023/08/27 13:00:13;;;;;;;1.73;0.90;;;;;;;;;;5070968;28;20036;-62
2023/08/27 13:02:39;;;;;;;2.05;1.25;;;;;;;;;;5072460;28;20048;-63
2023/08/27 13:05:05;;;;;;;2.53;1.55;;;;;;;;;;5072612;28;20161;-62
2023/08/27 13:07:31;;;;;;;1.02;1.00;;;;;;;;;;5071766;28;20043;-62
2023/08/27 13:09:57;;;;;;;2.20;0.90;;;;;;;;;;5070863;28;20036;-62
2023/08/27 13:12:23;;;;;;;1.38;1.02;;;;;;;;;;5072595;28;20047;-63
2023/08/27 13:14:49;;;;;;;0.80;0.80;;;;;;;;;;5071883;28;20036;-63
2023/08/27 13:17:15;;;;;;;1.77;1.08;;;;;;;;;;5072338;28;20036;-62
2023/08/27 13:19:41;;;;;;;1.77;1.20;;;;;;;;;;5072185;28;20086;-62
2023/08/27 13:22:07;;;;;;;3.22;1.20;;;;;;;;;;5070616;28;20124;-62
2023/08/27 13:24:33;;;;;;;1.65;1.50;;;;;;;;;;5072119;28;20040;-62
2023/08/27 13:26:59;;;;;;;1.40;1.30;;;;;;;;;;5089828;28;20052;-62
2023/08/27 13:29:25;;;;;;;2.50;1.27;;;;;;;;;;5091397;28;20426;-62
2023/08/27 13:31:57;;;;;;;2.72;1.50;;;;;;;;;;5092120;28;20044;-62
2023/08/27 13:34:23;;;;;;;;;;;;;;;;;;5092375;28;20054;-62
2023/08/27 13:36:50;;;;;;;3.00;2.28;;;;;;;;;;5091771;28;19986;-62
2023/08/27 13:39:16;;;;;;;2.80;2.60;;;;;;;;;;5092175;28;20040;-62
2023/08/27 13:41:42;;;;;;;3.92;2.47;;;;;;;;;;5091993;28;20509;-62
2023/08/27 13:44:09;;;;;;;2.88;2.50;;;;;;;;;;5091681;28;20032;-62
2023/08/27 13:46:35;;;;;;;3.10;2.20;;;;;;;;;;5092104;28;20479;-62
2023/08/27 13:49:01;;;;;;;2.50;2.30;;;;;;;;;;5087807;28;20044;-62
2023/08/27 13:51:27;;;;;;;2.67;1.70;;;;;;;;;;5070880;28;20433;-62
2023/08/27 13:53:53;;;;;;;1.75;1.45;;;;;;;;;;5071128;28;20047;-62
2023/08/27 13:56:19;;;;;;;3.20;1.55;;;;;;;;;;5071223;28;20528;-62
2023/08/27 13:58:46;;;;;;;3.20;1.67;;;;;;;;;;5071082;28;20224;-63
2023/08/27 14:01:12;;;;;;;1.92;0.90;;;;;;;;;;5071368;28;20482;-63
2023/08/27 14:03:38;;;;;;;1.30;1.00;;;;;;;;;;5070646;28;20052;-63
2023/08/27 14:06:04;;;;;;;1.90;0.55;;;;;;;;;;5070922;28;20051;-63
2023/08/27 14:08:30;;;;;;;1.85;0.50;;;;;;;;;;5071162;28;20080;-63
2023/08/27 14:10:56;;;;;;;1.02;0.45;;;;;;;;;;5071188;28;20126;-63
2023/08/27 14:13:23;;;;;;;2.35;0.70;;;;;;;;;;5070921;28;20037;-63
2023/08/27 14:15:49;;;;;;;2.08;0.50;;;;;;;;;;5070972;28;20036;-63
2023/08/27 14:18:15;;;;;;;1.15;0.68;;;;;;;;;;5071337;28;20410;-63
2023/08/27 14:20:41;;;;;;;1.13;0.50;;;;;;;;;;5070748;28;20083;-63
2023/08/27 14:23:07;;;;;;;1.00;0.60;;;;;;;;;;5071305;28;20064;-63
2023/08/27 14:25:33;;;;;;;1.50;0.60;;;;;;;;;;5076515;28;20074;-63
2023/08/27 14:27:59;;;;;;;2.00;0.75;;;;;;;;;;5090634;28;20059;-63
2023/08/27 14:30:25;;;;;;;1.35;0.80;;;;;;;;;;5090658;28;20055;-63
2023/08/27 14:32:51;;;;;;;1.55;0.70;;;;;;;;;;5091059;28;20040;-63
2023/08/27 14:35:17;;;;;;;2.58;0.80;;;;;;;;;;5090344;28;20047;-63
2023/08/27 14:37:44;;;;;;;2.80;0.80;;;;;;;;;;5090963;28;20055;-63
2023/08/27 14:40:10;;;;;;;3.03;1.00;;;;;;;;;;5090911;28;20072;-62